createdAt,value
2019-05-23T00:01:54.568Z,14.17
2019-05-23T00:06:56.288Z,15.40
2019-05-23T00:11:58.303Z,13.47
2019-05-23T00:16:59.856Z,16.20
2019-05-23T00:22:02.044Z,14.80
2019-05-23T00:27:04.068Z,19.67
2019-05-23T00:32:05.602Z,11.80
2019-05-23T00:37:07.472Z,14.40
2019-05-23T00:42:09.253Z,14.00
2019-05-23T00:47:10.698Z,17.50
2019-05-23T00:52:12.204Z,15.57
2019-05-23T00:57:14.011Z,15.00
2019-05-23T01:02:15.553Z,15.60
2019-05-23T01:07:17.542Z,20.27
2019-05-23T01:12:19.235Z,19.17
2019-05-23T01:17:20.913Z,13.97
2019-05-23T01:22:22.506Z,17.87
2019-05-23T01:27:24.319Z,17.23
2019-05-23T01:32:26.106Z,14.50
2019-05-23T01:37:27.752Z,17.50
2019-05-23T01:42:29.298Z,16.53
2019-05-23T01:47:30.980Z,19.73
2019-05-23T01:52:32.523Z,20.00
2019-05-23T01:57:34.693Z,19.07
2019-05-23T02:02:36.205Z,16.93
2019-05-23T02:07:37.763Z,21.90
2019-05-23T02:12:39.312Z,17.70
2019-05-23T02:17:40.722Z,20.70
2019-05-23T02:22:42.579Z,15.97
2019-05-23T02:27:45.028Z,18.17
2019-05-23T02:32:46.617Z,15.70
2019-05-23T02:37:48.482Z,17.17
2019-05-23T02:42:50.298Z,17.07
2019-05-23T02:47:52.142Z,18.80
2019-05-23T02:52:53.929Z,19.13
2019-05-23T02:57:59.126Z,16.63
2019-05-23T03:03:00.859Z,21.17
2019-05-23T03:08:02.857Z,16.67
2019-05-23T03:13:04.353Z,18.50
2019-05-23T03:18:05.633Z,17.23
2019-05-23T03:23:09.968Z,17.97
2019-05-23T03:28:11.730Z,17.60
2019-05-23T03:33:13.262Z,23.23
2019-05-23T03:38:14.844Z,21.80
2019-05-23T03:43:16.322Z,19.23
2019-05-23T03:48:17.823Z,21.60
2019-05-23T03:53:19.754Z,23.53
2019-05-23T03:58:21.620Z,24.97
2019-05-23T04:03:23.573Z,21.90
2019-05-23T04:08:25.207Z,25.07
2019-05-23T04:13:27.433Z,22.63
2019-05-23T04:18:29.040Z,24.03
2019-05-23T04:23:30.606Z,27.90
2019-05-23T04:28:32.160Z,28.73
2019-05-23T04:33:33.600Z,28.70
2019-05-23T04:38:36.471Z,27.33
2019-05-23T04:43:38.763Z,32.17
2019-05-23T04:48:40.276Z,27.37
2019-05-23T04:53:41.989Z,30.47
2019-05-23T04:58:43.473Z,29.80
2019-05-23T05:03:46.325Z,29.43
2019-05-23T05:08:47.844Z,31.47
2019-05-23T05:13:49.612Z,33.93
2019-05-23T05:18:51.091Z,33.60
2019-05-23T05:23:52.982Z,32.00
2019-05-23T05:28:54.907Z,34.53
2019-05-23T05:33:56.488Z,32.50
2019-05-23T05:38:58.427Z,32.37
2019-05-23T05:44:00.228Z,33.07
2019-05-23T05:49:01.829Z,33.27
2019-05-23T05:54:03.481Z,29.90
2019-05-23T05:59:05.597Z,28.87
2019-05-23T06:04:07.849Z,29.77
2019-05-23T06:09:09.831Z,32.47
2019-05-23T06:14:11.406Z,30.83
2019-05-23T06:19:12.821Z,27.67
2019-05-23T06:24:14.679Z,28.20
2019-05-23T06:29:16.367Z,25.23
2019-05-23T06:34:17.940Z,26.43
2019-05-23T06:39:19.472Z,24.23
2019-05-23T06:44:21.322Z,27.63
2019-05-23T06:49:22.954Z,28.33
2019-05-23T06:54:24.631Z,24.83
2019-05-23T06:59:26.041Z,24.10
2019-05-23T07:04:28.553Z,27.23
2019-05-23T07:09:30.095Z,27.37
2019-05-23T07:14:32.275Z,19.15
2019-05-23T07:19:33.754Z,18.42
2019-05-23T07:24:35.747Z,21.52
2019-05-23T07:29:37.853Z,23.30
2019-05-23T07:34:39.404Z,18.30
2019-05-23T07:39:40.975Z,20.48
2019-05-23T07:44:48.333Z,18.62
2019-05-23T07:49:45.951Z,16.17
2019-05-23T07:54:48.149Z,13.28
2019-05-23T07:59:49.705Z,12.63
2019-05-23T08:04:51.378Z,14.43
2019-05-23T08:09:53.287Z,12.90
2019-05-23T08:14:55.002Z,8.95
2019-05-23T08:19:56.531Z,8.60
2019-05-23T08:24:58.698Z,12.37
2019-05-23T08:30:02.358Z,10.72
2019-05-23T08:35:04.557Z,12.30
2019-05-23T08:40:06.084Z,15.15
2019-05-23T08:45:08.169Z,15.48
2019-05-23T08:50:10.078Z,17.20
2019-05-23T08:55:18.828Z,13.85
2019-05-23T09:00:20.775Z,16.35
2019-05-23T09:05:22.302Z,14.63
2019-05-23T09:10:23.868Z,19.87
2019-05-23T09:15:25.455Z,16.82
2019-05-23T09:20:26.982Z,15.72
2019-05-23T09:25:28.852Z,14.33
2019-05-23T09:30:30.350Z,14.35
2019-05-23T09:35:31.914Z,18.95
2019-05-23T09:40:33.433Z,18.52
2019-05-23T09:45:35.686Z,14.53
2019-05-23T09:50:37.503Z,13.25
2019-05-23T09:55:39.034Z,11.15
2019-05-23T10:00:40.535Z,9.70
2019-05-23T10:05:44.028Z,13.13
2019-05-23T10:10:45.562Z,11.40
2019-05-23T10:15:47.441Z,9.98
2019-05-23T10:20:49.411Z,10.93
2019-05-23T10:25:50.917Z,11.28
2019-05-23T10:30:52.457Z,9.70
2019-05-23T10:36:00.436Z,7.22
2019-05-23T10:40:57.405Z,5.05
2019-05-23T10:45:59.311Z,7.28
2019-05-23T10:51:01.218Z,4.90
2019-05-23T10:56:02.706Z,6.92
2019-05-23T11:01:04.572Z,6.47
2019-05-23T11:06:15.647Z,5.08
2019-05-23T11:11:14.323Z,3.55
2019-05-23T11:16:14.230Z,3.50
2019-05-23T11:21:16.654Z,3.20
2019-05-23T11:26:18.123Z,3.37
2019-05-23T11:31:19.689Z,5.75
2019-05-23T11:36:34.424Z,3.17
2019-05-23T11:41:25.143Z,8.93
2019-05-23T11:46:26.644Z,4.55
2019-05-23T11:51:28.332Z,5.95
2019-05-23T11:56:29.942Z,5.10
2019-05-23T12:01:31.496Z,3.25
2019-05-23T12:06:51.700Z,6.53
2019-05-23T12:11:42.510Z,5.50
2019-05-23T12:16:41.868Z,5.50
2019-05-23T12:21:44.039Z,5.72
2019-05-23T12:26:46.270Z,6.17
2019-05-23T12:31:49.510Z,6.28
2019-05-23T12:36:51.271Z,7.20
2019-05-23T12:41:52.768Z,6.65
2019-05-23T12:46:54.317Z,8.05
2019-05-23T12:51:56.394Z,5.15
2019-05-23T12:56:58.092Z,5.75
2019-05-23T13:01:59.782Z,6.72
2019-05-23T13:07:01.150Z,7.80
2019-05-23T13:12:02.825Z,7.58
2019-05-23T13:17:04.342Z,6.90
2019-05-23T13:22:06.638Z,7.10
2019-05-23T13:27:08.230Z,6.33
2019-05-23T13:32:09.761Z,7.28
2019-05-23T13:37:16.474Z,6.47
2019-05-23T13:42:15.167Z,8.58
2019-05-23T13:47:16.687Z,5.95
2019-05-23T13:52:18.260Z,3.15
2019-05-23T13:57:19.746Z,3.30
2019-05-23T14:02:21.647Z,1.50
2019-05-23T14:07:23.478Z,1.57
2019-05-23T14:12:25.119Z,2.15
2019-05-23T14:17:26.740Z,2.40
2019-05-23T14:22:28.569Z,1.25
2019-05-23T14:27:30.321Z,1.42
2019-05-23T14:32:31.919Z,3.42
2019-05-23T14:37:33.888Z,5.10
2019-05-23T14:42:35.536Z,2.25
2019-05-23T14:47:37.658Z,4.03
2019-05-23T14:52:39.204Z,5.58
2019-05-23T14:57:41.194Z,4.65
2019-05-23T15:02:42.737Z,5.92
2019-05-23T15:07:44.117Z,6.53
2019-05-23T15:12:45.427Z,5.95
2019-05-23T15:17:47.166Z,5.28
2019-05-23T15:22:48.712Z,6.00
2019-05-23T15:27:50.640Z,6.55
2019-05-23T15:32:51.996Z,6.62
2019-05-23T15:37:53.527Z,6.22
2019-05-23T15:42:55.448Z,6.33
2019-05-23T15:47:56.741Z,6.35
2019-05-23T15:52:58.657Z,6.10
2019-05-23T15:58:00.628Z,6.40
2019-05-23T16:03:02.193Z,7.28
2019-05-23T16:08:03.937Z,6.12
2019-05-23T16:13:05.879Z,4.97
2019-05-23T16:18:07.575Z,5.92
2019-05-23T16:23:09.173Z,3.47
2019-05-23T16:28:10.744Z,3.67
2019-05-23T16:33:12.664Z,3.35
2019-05-23T16:38:14.465Z,7.42
2019-05-23T16:43:16.331Z,4.55
2019-05-23T16:48:17.830Z,5.72
2019-05-23T16:53:19.497Z,4.90
2019-05-23T16:58:21.685Z,5.22
2019-05-23T17:03:23.470Z,3.15
2019-05-23T17:08:25.283Z,6.05
2019-05-23T17:13:28.994Z,4.97
2019-05-23T17:18:30.811Z,8.23
2019-05-23T17:23:33.704Z,4.72
2019-05-23T17:28:38.590Z,2.52
2019-05-23T17:33:40.690Z,4.92
2019-05-23T17:38:43.078Z,2.92
2019-05-23T17:43:44.557Z,4.83
2019-05-23T17:48:49.218Z,3.75
2019-05-23T17:53:50.684Z,2.27
2019-05-23T17:58:52.542Z,2.67
2019-05-23T18:03:54.451Z,5.62
2019-05-23T18:08:56.013Z,5.80
2019-05-23T18:13:57.959Z,6.70
2019-05-23T18:19:00.429Z,4.30
2019-05-23T18:24:02.019Z,5.67
2019-05-23T18:29:03.674Z,3.85
2019-05-23T18:34:05.178Z,4.97
2019-05-23T18:39:07.187Z,3.00
2019-05-23T18:44:08.745Z,2.52
2019-05-23T18:49:10.275Z,3.05
2019-05-23T18:54:11.835Z,3.80
2019-05-23T18:59:13.660Z,2.20
2019-05-23T19:04:15.207Z,5.15
2019-05-23T19:09:17.172Z,3.47
2019-05-23T19:14:19.179Z,2.85
2019-05-23T19:19:20.755Z,3.25
2019-05-23T19:24:22.519Z,3.72
2019-05-23T19:29:24.423Z,5.05
2019-05-23T19:34:26.709Z,7.15
2019-05-23T19:39:28.248Z,8.43
2019-05-23T19:44:30.040Z,3.62
2019-05-23T19:49:31.560Z,4.55
2019-05-23T19:54:33.406Z,6.70
2019-05-23T19:59:35.339Z,8.10
2019-05-23T20:04:36.872Z,6.40
2019-05-23T20:09:39.464Z,6.75
2019-05-23T20:14:41.385Z,4.70
2019-05-23T20:19:42.978Z,4.95
2019-05-23T20:24:45.187Z,8.28
2019-05-23T20:29:46.754Z,4.00
2019-05-23T20:34:48.605Z,5.55
2019-05-23T20:39:50.192Z,3.37
2019-05-23T20:44:51.596Z,5.65
2019-05-23T20:49:53.841Z,11.63
2019-05-23T20:54:55.598Z,4.12
2019-05-23T20:59:57.100Z,7.58
2019-05-23T21:04:58.696Z,5.50
2019-05-23T21:10:00.566Z,5.20
2019-05-23T21:15:02.143Z,9.03
2019-05-23T21:20:04.047Z,4.22
2019-05-23T21:25:05.594Z,4.03
2019-05-23T21:30:07.109Z,4.85
2019-05-23T21:35:09.699Z,4.25
2019-05-23T21:40:15.907Z,6.28
2019-05-23T21:45:17.467Z,4.50
2019-05-23T21:50:19.324Z,7.92
2019-05-23T21:55:34.610Z,7.67
2019-05-23T22:01:06.017Z,7.62
2019-05-23T22:06:10.373Z,9.00
2019-05-23T22:11:12.320Z,8.73
2019-05-23T22:16:13.961Z,8.78
2019-05-23T22:21:15.466Z,6.30
2019-05-23T22:26:17.472Z,9.88
2019-05-23T22:31:19.202Z,8.63
2019-05-23T22:36:21.510Z,9.85
2019-05-23T22:41:23.307Z,8.25
2019-05-23T22:46:24.786Z,9.08
2019-05-23T22:51:26.341Z,8.93
2019-05-23T22:56:27.870Z,7.92
2019-05-23T23:01:29.626Z,8.80
2019-05-23T23:06:31.089Z,8.13
2019-05-23T23:11:32.569Z,8.28
2019-05-23T23:16:34.696Z,8.35
2019-05-23T23:21:36.488Z,8.53
2019-05-23T23:26:38.007Z,8.40
2019-05-23T23:31:39.660Z,9.28
2019-05-23T23:36:41.386Z,10.95
2019-05-23T23:41:42.881Z,10.68
2019-05-23T23:46:44.477Z,9.95
2019-05-23T23:51:45.981Z,9.03
2019-05-23T23:56:48.157Z,8.50
